sensor_id;sensor_type;location;lat;lon;timestamp;P1;durP1;ratioP1;P2;durP2;ratioP2
75246;SDS011;63844;50.042;19.224;2023-11-19T00:00:02;18.00;;;8.10;;
75246;SDS011;63844;50.042;19.224;2023-11-19T00:01:41;17.90;;;8.70;;
75246;SDS011;63844;50.042;19.224;2023-11-19T00:03:17;18.40;;;7.80;;
75246;SDS011;63844;50.042;19.224;2023-11-19T00:04:54;17.60;;;7.90;;
75246;SDS011;63844;50.042;19.224;2023-11-19T00:06:30;15.70;;;7.40;;
75246;SDS011;63844;50.042;19.224;2023-11-19T00:08:07;19.30;;;7.10;;
75246;SDS011;63844;50.042;19.224;2023-11-19T00:09:45;15.90;;;7.50;;
75246;SDS011;63844;50.042;19.224;2023-11-19T00:11:21;17.10;;;7.40;;
75246;SDS011;63844;50.042;19.224;2023-11-19T00:12:58;16.70;;;8.10;;
75246;SDS011;63844;50.042;19.224;2023-11-19T00:14:34;18.80;;;7.90;;
75246;SDS011;63844;50.042;19.224;2023-11-19T00:16:11;16.00;;;7.60;;
75246;SDS011;63844;50.042;19.224;2023-11-19T00:17:48;18.10;;;8.00;;
75246;SDS011;63844;50.042;19.224;2023-11-19T00:19:25;17.10;;;7.50;;
75246;SDS011;63844;50.042;19.224;2023-11-19T00:21:02;16.80;;;7.30;;
75246;SDS011;63844;50.042;19.224;2023-11-19T00:22:39;15.80;;;7.90;;
75246;SDS011;63844;50.042;19.224;2023-11-19T00:24:15;16.90;;;7.50;;
75246;SDS011;63844;50.042;19.224;2023-11-19T00:25:53;18.40;;;8.60;;
75246;SDS011;63844;50.042;19.224;2023-11-19T00:27:30;18.00;;;9.00;;
75246;SDS011;63844;50.042;19.224;2023-11-19T00:29:06;17.70;;;8.20;;
75246;SDS011;63844;50.042;19.224;2023-11-19T00:30:43;19.50;;;8.40;;
75246;SDS011;63844;50.042;19.224;2023-11-19T00:32:20;16.00;;;7.40;;
75246;SDS011;63844;50.042;19.224;2023-11-19T00:33:56;17.60;;;8.30;;
75246;SDS011;63844;50.042;19.224;2023-11-19T00:35:33;17.60;;;7.50;;
75246;SDS011;63844;50.042;19.224;2023-11-19T00:37:09;18.00;;;7.60;;
75246;SDS011;63844;50.042;19.224;2023-11-19T00:38:46;17.40;;;7.60;;
75246;SDS011;63844;50.042;19.224;2023-11-19T00:40:23;17.10;;;7.20;;
75246;SDS011;63844;50.042;19.224;2023-11-19T00:42:00;15.00;;;7.30;;
75246;SDS011;63844;50.042;19.224;2023-11-19T00:43:36;16.50;;;7.30;;
75246;SDS011;63844;50.042;19.224;2023-11-19T00:45:13;17.30;;;8.20;;
75246;SDS011;63844;50.042;19.224;2023-11-19T00:46:50;16.70;;;7.80;;
75246;SDS011;63844;50.042;19.224;2023-11-19T00:48:27;17.00;;;7.30;;
75246;SDS011;63844;50.042;19.224;2023-11-19T00:50:04;16.70;;;7.20;;
75246;SDS011;63844;50.042;19.224;2023-11-19T00:51:41;18.40;;;8.20;;
75246;SDS011;63844;50.042;19.224;2023-11-19T00:53:18;15.20;;;7.70;;
75246;SDS011;63844;50.042;19.224;2023-11-19T00:54:54;16.70;;;7.60;;
75246;SDS011;63844;50.042;19.224;2023-11-19T00:56:31;17.50;;;8.20;;
75246;SDS011;63844;50.042;19.224;2023-11-19T00:58:08;17.70;;;7.40;;
75246;SDS011;63844;50.042;19.224;2023-11-19T00:59:44;17.80;;;8.00;;
75246;SDS011;63844;50.042;19.224;2023-11-19T01:01:21;17.10;;;7.80;;
75246;SDS011;63844;50.042;19.224;2023-11-19T01:02:58;17.60;;;8.40;;
75246;SDS011;63844;50.042;19.224;2023-11-19T01:04:36;21.00;;;8.80;;
75246;SDS011;63844;50.042;19.224;2023-11-19T01:06:13;15.30;;;7.90;;
75246;SDS011;63844;50.042;19.224;2023-11-19T01:07:50;21.70;;;9.80;;
75246;SDS011;63844;50.042;19.224;2023-11-19T01:09:28;18.80;;;9.00;;
75246;SDS011;63844;50.042;19.224;2023-11-19T01:11:05;23.50;;;10.80;;
75246;SDS011;63844;50.042;19.224;2023-11-19T01:12:44;21.20;;;9.80;;
75246;SDS011;63844;50.042;19.224;2023-11-19T01:14:20;20.20;;;9.10;;
75246;SDS011;63844;50.042;19.224;2023-11-19T01:15:57;19.60;;;9.20;;
75246;SDS011;63844;50.042;19.224;2023-11-19T01:17:33;21.80;;;9.80;;
75246;SDS011;63844;50.042;19.224;2023-11-19T01:19:10;16.70;;;8.30;;
75246;SDS011;63844;50.042;19.224;2023-11-19T01:20:47;18.60;;;8.50;;
75246;SDS011;63844;50.042;19.224;2023-11-19T01:22:24;21.60;;;9.60;;
75246;SDS011;63844;50.042;19.224;2023-11-19T01:24:00;19.90;;;8.80;;
75246;SDS011;63844;50.042;19.224;2023-11-19T01:25:37;28.10;;;11.50;;
75246;SDS011;63844;50.042;19.224;2023-11-19T01:27:14;20.80;;;9.50;;
75246;SDS011;63844;50.042;19.224;2023-11-19T01:28:51;26.00;;;12.50;;
75246;SDS011;63844;50.042;19.224;2023-11-19T01:30:29;26.50;;;12.00;;
75246;SDS011;63844;50.042;19.224;2023-11-19T01:32:05;28.20;;;12.30;;
75246;SDS011;63844;50.042;19.224;2023-11-19T01:33:42;23.40;;;11.20;;
75246;SDS011;63844;50.042;19.224;2023-11-19T01:35:19;26.00;;;11.70;;
75246;SDS011;63844;50.042;19.224;2023-11-19T01:36:56;29.70;;;14.20;;
75246;SDS011;63844;50.042;19.224;2023-11-19T01:38:32;27.60;;;13.30;;
75246;SDS011;63844;50.042;19.224;2023-11-19T01:40:09;26.00;;;12.20;;
75246;SDS011;63844;50.042;19.224;2023-11-19T01:41:47;27.30;;;12.20;;
75246;SDS011;63844;50.042;19.224;2023-11-19T01:43:31;29.20;;;13.00;;
75246;SDS011;63844;50.042;19.224;2023-11-19T01:45:17;29.30;;;12.90;;
75246;SDS011;63844;50.042;19.224;2023-11-19T01:47:03;27.00;;;12.30;;
75246;SDS011;63844;50.042;19.224;2023-11-19T01:48:42;28.40;;;13.50;;
75246;SDS011;63844;50.042;19.224;2023-11-19T01:50:22;29.90;;;13.00;;
75246;SDS011;63844;50.042;19.224;2023-11-19T01:52:00;29.60;;;12.50;;
75246;SDS011;63844;50.042;19.224;2023-11-19T01:53:40;29.60;;;14.20;;
75246;SDS011;63844;50.042;19.224;2023-11-19T01:55:17;36.10;;;15.20;;
75246;SDS011;63844;50.042;19.224;2023-11-19T01:56:53;28.90;;;13.30;;
75246;SDS011;63844;50.042;19.224;2023-11-19T01:58:33;29.70;;;12.80;;
75246;SDS011;63844;50.042;19.224;2023-11-19T02:00:10;28.40;;;13.20;;
75246;SDS011;63844;50.042;19.224;2023-11-19T02:01:48;29.30;;;13.80;;
75246;SDS011;63844;50.042;19.224;2023-11-19T02:03:27;28.60;;;13.10;;
75246;SDS011;63844;50.042;19.224;2023-11-19T02:05:06;32.50;;;14.40;;
75246;SDS011;63844;50.042;19.224;2023-11-19T02:06:43;30.80;;;14.50;;
75246;SDS011;63844;50.042;19.224;2023-11-19T02:08:21;29.80;;;14.60;;
75246;SDS011;63844;50.042;19.224;2023-11-19T02:09:58;30.20;;;13.70;;
75246;SDS011;63844;50.042;19.224;2023-11-19T02:11:36;25.40;;;12.80;;
75246;SDS011;63844;50.042;19.224;2023-11-19T02:13:16;25.90;;;13.10;;
75246;SDS011;63844;50.042;19.224;2023-11-19T02:14:52;27.70;;;12.40;;
75246;SDS011;63844;50.042;19.224;2023-11-19T02:16:29;28.10;;;13.40;;
75246;SDS011;63844;50.042;19.224;2023-11-19T02:18:25;25.20;;;12.90;;
75246;SDS011;63844;50.042;19.224;2023-11-19T02:20:06;25.60;;;12.70;;
75246;SDS011;63844;50.042;19.224;2023-11-19T02:21:47;29.30;;;13.00;;
75246;SDS011;63844;50.042;19.224;2023-11-19T02:23:25;25.30;;;11.70;;
75246;SDS011;63844;50.042;19.224;2023-11-19T02:25:04;27.40;;;11.10;;
75246;SDS011;63844;50.042;19.224;2023-11-19T02:26:45;23.90;;;11.70;;
75246;SDS011;63844;50.042;19.224;2023-11-19T02:28:28;26.70;;;11.50;;
75246;SDS011;63844;50.042;19.224;2023-11-19T02:30:05;25.70;;;11.40;;
75246;SDS011;63844;50.042;19.224;2023-11-19T02:31:44;20.50;;;10.00;;
75246;SDS011;63844;50.042;19.224;2023-11-19T02:33:21;23.60;;;10.50;;
75246;SDS011;63844;50.042;19.224;2023-11-19T02:34:59;25.70;;;10.90;;
75246;SDS011;63844;50.042;19.224;2023-11-19T02:36:35;20.20;;;10.20;;
75246;SDS011;63844;50.042;19.224;2023-11-19T02:38:12;22.90;;;10.60;;
75246;SDS011;63844;50.042;19.224;2023-11-19T02:39:50;23.00;;;10.60;;
75246;SDS011;63844;50.042;19.224;2023-11-19T02:41:27;20.00;;;9.50;;
75246;SDS011;63844;50.042;19.224;2023-11-19T02:43:03;21.90;;;9.40;;
75246;SDS011;63844;50.042;19.224;2023-11-19T02:44:44;20.10;;;9.30;;
75246;SDS011;63844;50.042;19.224;2023-11-19T02:46:21;19.70;;;9.30;;
75246;SDS011;63844;50.042;19.224;2023-11-19T02:47:58;21.80;;;10.40;;
75246;SDS011;63844;50.042;19.224;2023-11-19T02:49:37;20.60;;;9.60;;
75246;SDS011;63844;50.042;19.224;2023-11-19T02:51:14;22.50;;;10.40;;
75246;SDS011;63844;50.042;19.224;2023-11-19T02:52:52;21.50;;;9.40;;
75246;SDS011;63844;50.042;19.224;2023-11-19T02:54:30;23.00;;;9.80;;
75246;SDS011;63844;50.042;19.224;2023-11-19T02:56:11;21.80;;;9.70;;
75246;SDS011;63844;50.042;19.224;2023-11-19T02:58:01;24.40;;;11.00;;
75246;SDS011;63844;50.042;19.224;2023-11-19T02:59:44;26.50;;;10.70;;
75246;SDS011;63844;50.042;19.224;2023-11-19T03:01:21;24.70;;;10.80;;
75246;SDS011;63844;50.042;19.224;2023-11-19T03:03:05;25.70;;;11.10;;
75246;SDS011;63844;50.042;19.224;2023-11-19T03:04:54;24.60;;;10.30;;
75246;SDS011;63844;50.042;19.224;2023-11-19T03:06:32;24.60;;;11.10;;
75246;SDS011;63844;50.042;19.224;2023-11-19T03:08:09;26.30;;;12.40;;
75246;SDS011;63844;50.042;19.224;2023-11-19T03:09:45;22.40;;;10.20;;
75246;SDS011;63844;50.042;19.224;2023-11-19T03:11:24;25.70;;;11.80;;
75246;SDS011;63844;50.042;19.224;2023-11-19T03:13:01;25.20;;;10.80;;
75246;SDS011;63844;50.042;19.224;2023-11-19T03:14:39;25.70;;;11.70;;
75246;SDS011;63844;50.042;19.224;2023-11-19T03:16:16;25.70;;;11.60;;
75246;SDS011;63844;50.042;19.224;2023-11-19T03:17:53;28.60;;;12.90;;
75246;SDS011;63844;50.042;19.224;2023-11-19T03:19:30;25.20;;;12.00;;
75246;SDS011;63844;50.042;19.224;2023-11-19T03:21:07;27.50;;;12.70;;
75246;SDS011;63844;50.042;19.224;2023-11-19T03:22:47;25.60;;;11.10;;
75246;SDS011;63844;50.042;19.224;2023-11-19T03:24:23;22.50;;;10.40;;
75246;SDS011;63844;50.042;19.224;2023-11-19T03:26:01;25.30;;;10.70;;
75246;SDS011;63844;50.042;19.224;2023-11-19T03:27:41;24.80;;;10.40;;
75246;SDS011;63844;50.042;19.224;2023-11-19T03:29:18;29.30;;;11.50;;
75246;SDS011;63844;50.042;19.224;2023-11-19T03:30:55;26.10;;;11.00;;
75246;SDS011;63844;50.042;19.224;2023-11-19T03:32:32;28.30;;;11.80;;
75246;SDS011;63844;50.042;19.224;2023-11-19T03:34:10;29.50;;;12.40;;
75246;SDS011;63844;50.042;19.224;2023-11-19T03:35:46;31.30;;;12.80;;
75246;SDS011;63844;50.042;19.224;2023-11-19T03:37:23;25.50;;;11.60;;
75246;SDS011;63844;50.042;19.224;2023-11-19T03:39:00;27.20;;;11.70;;
75246;SDS011;63844;50.042;19.224;2023-11-19T03:40:37;30.20;;;12.40;;
75246;SDS011;63844;50.042;19.224;2023-11-19T03:42:14;32.40;;;13.60;;
75246;SDS011;63844;50.042;19.224;2023-11-19T03:43:51;26.90;;;12.10;;
75246;SDS011;63844;50.042;19.224;2023-11-19T03:45:27;26.50;;;11.30;;
75246;SDS011;63844;50.042;19.224;2023-11-19T03:47:04;26.80;;;12.30;;
75246;SDS011;63844;50.042;19.224;2023-11-19T03:48:41;26.30;;;11.40;;
75246;SDS011;63844;50.042;19.224;2023-11-19T03:50:17;23.40;;;9.60;;
75246;SDS011;63844;50.042;19.224;2023-11-19T03:51:56;26.80;;;11.00;;
75246;SDS011;63844;50.042;19.224;2023-11-19T03:53:33;25.60;;;11.40;;
75246;SDS011;63844;50.042;19.224;2023-11-19T03:55:09;26.90;;;11.40;;
75246;SDS011;63844;50.042;19.224;2023-11-19T03:56:46;29.20;;;12.90;;
75246;SDS011;63844;50.042;19.224;2023-11-19T03:58:23;31.00;;;13.10;;
75246;SDS011;63844;50.042;19.224;2023-11-19T03:59:59;26.60;;;12.10;;
75246;SDS011;63844;50.042;19.224;2023-11-19T04:01:36;28.40;;;12.50;;
75246;SDS011;63844;50.042;19.224;2023-11-19T04:03:13;28.80;;;12.60;;
75246;SDS011;63844;50.042;19.224;2023-11-19T04:04:50;30.30;;;12.30;;
75246;SDS011;63844;50.042;19.224;2023-11-19T04:06:27;33.70;;;13.60;;
75246;SDS011;63844;50.042;19.224;2023-11-19T04:08:03;31.40;;;13.80;;
75246;SDS011;63844;50.042;19.224;2023-11-19T04:09:41;30.00;;;13.10;;
75246;SDS011;63844;50.042;19.224;2023-11-19T04:11:18;32.60;;;13.40;;
75246;SDS011;63844;50.042;19.224;2023-11-19T04:12:55;35.20;;;13.80;;
75246;SDS011;63844;50.042;19.224;2023-11-19T04:14:31;31.40;;;14.10;;
75246;SDS011;63844;50.042;19.224;2023-11-19T04:16:08;33.20;;;14.60;;
75246;SDS011;63844;50.042;19.224;2023-11-19T04:17:45;35.80;;;15.30;;
75246;SDS011;63844;50.042;19.224;2023-11-19T04:19:21;33.90;;;14.90;;
75246;SDS011;63844;50.042;19.224;2023-11-19T04:20:58;35.80;;;14.30;;
75246;SDS011;63844;50.042;19.224;2023-11-19T04:22:35;32.70;;;13.80;;
75246;SDS011;63844;50.042;19.224;2023-11-19T04:24:12;36.30;;;14.80;;
75246;SDS011;63844;50.042;19.224;2023-11-19T04:25:50;40.20;;;16.20;;
75246;SDS011;63844;50.042;19.224;2023-11-19T04:27:27;36.00;;;15.10;;
75246;SDS011;63844;50.042;19.224;2023-11-19T04:29:03;38.30;;;16.00;;
75246;SDS011;63844;50.042;19.224;2023-11-19T04:30:40;40.10;;;15.90;;
75246;SDS011;63844;50.042;19.224;2023-11-19T04:32:16;35.00;;;15.50;;
75246;SDS011;63844;50.042;19.224;2023-11-19T04:33:53;37.00;;;15.60;;
75246;SDS011;63844;50.042;19.224;2023-11-19T04:35:31;32.00;;;15.70;;
75246;SDS011;63844;50.042;19.224;2023-11-19T04:37:08;39.80;;;16.80;;
75246;SDS011;63844;50.042;19.224;2023-11-19T04:38:46;42.50;;;16.40;;
75246;SDS011;63844;50.042;19.224;2023-11-19T04:40:23;38.10;;;17.20;;
75246;SDS011;63844;50.042;19.224;2023-11-19T04:41:59;39.90;;;16.10;;
75246;SDS011;63844;50.042;19.224;2023-11-19T04:43:36;35.30;;;15.30;;
75246;SDS011;63844;50.042;19.224;2023-11-19T04:45:13;41.10;;;16.50;;
75246;SDS011;63844;50.042;19.224;2023-11-19T04:46:50;39.20;;;15.00;;
75246;SDS011;63844;50.042;19.224;2023-11-19T04:48:26;39.10;;;15.90;;
75246;SDS011;63844;50.042;19.224;2023-11-19T04:50:03;39.80;;;15.70;;
75246;SDS011;63844;50.042;19.224;2023-11-19T04:51:40;35.00;;;15.00;;
75246;SDS011;63844;50.042;19.224;2023-11-19T04:53:22;37.90;;;15.40;;
75246;SDS011;63844;50.042;19.224;2023-11-19T04:54:58;42.80;;;17.00;;
75246;SDS011;63844;50.042;19.224;2023-11-19T04:56:38;38.50;;;16.70;;
75246;SDS011;63844;50.042;19.224;2023-11-19T04:58:16;36.30;;;15.30;;
75246;SDS011;63844;50.042;19.224;2023-11-19T04:59:53;39.50;;;15.90;;
75246;SDS011;63844;50.042;19.224;2023-11-19T05:01:32;35.80;;;16.40;;
75246;SDS011;63844;50.042;19.224;2023-11-19T05:03:10;33.30;;;14.60;;
75246;SDS011;63844;50.042;19.224;2023-11-19T05:04:46;33.00;;;14.90;;
75246;SDS011;63844;50.042;19.224;2023-11-19T05:06:26;31.50;;;14.60;;
75246;SDS011;63844;50.042;19.224;2023-11-19T05:08:04;39.40;;;16.00;;
75246;SDS011;63844;50.042;19.224;2023-11-19T05:09:41;38.10;;;16.00;;
75246;SDS011;63844;50.042;19.224;2023-11-19T05:11:19;39.20;;;16.20;;
75246;SDS011;63844;50.042;19.224;2023-11-19T05:12:56;37.30;;;15.50;;
75246;SDS011;63844;50.042;19.224;2023-11-19T05:14:33;42.00;;;17.00;;
75246;SDS011;63844;50.042;19.224;2023-11-19T05:16:10;37.30;;;15.00;;
75246;SDS011;63844;50.042;19.224;2023-11-19T05:17:47;40.30;;;15.90;;
75246;SDS011;63844;50.042;19.224;2023-11-19T05:19:23;43.60;;;17.80;;
75246;SDS011;63844;50.042;19.224;2023-11-19T05:21:00;38.80;;;16.90;;
75246;SDS011;63844;50.042;19.224;2023-11-19T05:22:36;33.50;;;14.10;;
75246;SDS011;63844;50.042;19.224;2023-11-19T05:24:13;33.00;;;14.70;;
75246;SDS011;63844;50.042;19.224;2023-11-19T05:25:50;38.40;;;16.20;;
75246;SDS011;63844;50.042;19.224;2023-11-19T05:27:27;36.80;;;15.60;;
75246;SDS011;63844;50.042;19.224;2023-11-19T05:29:04;39.20;;;16.00;;
75246;SDS011;63844;50.042;19.224;2023-11-19T05:30:41;36.90;;;16.70;;
75246;SDS011;63844;50.042;19.224;2023-11-19T05:32:18;42.00;;;17.20;;
75246;SDS011;63844;50.042;19.224;2023-11-19T05:33:54;33.90;;;14.80;;
75246;SDS011;63844;50.042;19.224;2023-11-19T05:35:31;37.20;;;14.30;;
75246;SDS011;63844;50.042;19.224;2023-11-19T05:37:08;38.70;;;16.30;;
75246;SDS011;63844;50.042;19.224;2023-11-19T05:38:47;43.90;;;17.20;;
75246;SDS011;63844;50.042;19.224;2023-11-19T05:40:23;37.50;;;16.90;;
75246;SDS011;63844;50.042;19.224;2023-11-19T05:42:00;36.30;;;15.60;;
75246;SDS011;63844;50.042;19.224;2023-11-19T05:43:37;40.10;;;17.40;;
75246;SDS011;63844;50.042;19.224;2023-11-19T05:45:16;49.00;;;19.20;;
75246;SDS011;63844;50.042;19.224;2023-11-19T05:46:53;41.20;;;17.70;;
75246;SDS011;63844;50.042;19.224;2023-11-19T05:48:30;40.60;;;17.70;;
75246;SDS011;63844;50.042;19.224;2023-11-19T05:50:06;39.40;;;16.80;;
75246;SDS011;63844;50.042;19.224;2023-11-19T05:51:44;39.70;;;16.70;;
75246;SDS011;63844;50.042;19.224;2023-11-19T05:53:22;36.30;;;16.20;;
75246;SDS011;63844;50.042;19.224;2023-11-19T05:55:02;38.20;;;16.30;;
75246;SDS011;63844;50.042;19.224;2023-11-19T05:56:41;36.90;;;15.40;;
75246;SDS011;63844;50.042;19.224;2023-11-19T06:00:08;31.20;;;12.20;;
75246;SDS011;63844;50.042;19.224;2023-11-19T06:01:50;31.70;;;12.50;;
75246;SDS011;63844;50.042;19.224;2023-11-19T06:03:28;38.10;;;15.50;;
75246;SDS011;63844;50.042;19.224;2023-11-19T06:05:05;35.90;;;14.20;;
75246;SDS011;63844;50.042;19.224;2023-11-19T06:06:42;30.70;;;13.40;;
75246;SDS011;63844;50.042;19.224;2023-11-19T06:08:19;40.10;;;15.70;;
75246;SDS011;63844;50.042;19.224;2023-11-19T06:09:57;38.60;;;16.60;;
75246;SDS011;63844;50.042;19.224;2023-11-19T06:11:33;38.90;;;16.20;;
75246;SDS011;63844;50.042;19.224;2023-11-19T06:13:14;30.30;;;13.20;;
75246;SDS011;63844;50.042;19.224;2023-11-19T06:14:51;30.00;;;13.50;;
75246;SDS011;63844;50.042;19.224;2023-11-19T06:16:28;40.80;;;16.20;;
75246;SDS011;63844;50.042;19.224;2023-11-19T06:18:04;29.40;;;12.30;;
75246;SDS011;63844;50.042;19.224;2023-11-19T06:19:42;36.50;;;15.10;;
75246;SDS011;63844;50.042;19.224;2023-11-19T06:21:18;36.90;;;15.60;;
75246;SDS011;63844;50.042;19.224;2023-11-19T06:22:56;34.30;;;14.70;;
75246;SDS011;63844;50.042;19.224;2023-11-19T06:24:33;30.30;;;12.90;;
75246;SDS011;63844;50.042;19.224;2023-11-19T06:26:09;33.30;;;14.00;;
75246;SDS011;63844;50.042;19.224;2023-11-19T06:27:46;42.20;;;16.90;;
75246;SDS011;63844;50.042;19.224;2023-11-19T06:29:22;35.60;;;14.80;;
75246;SDS011;63844;50.042;19.224;2023-11-19T06:30:59;33.20;;;14.10;;
75246;SDS011;63844;50.042;19.224;2023-11-19T06:32:37;37.70;;;14.70;;
75246;SDS011;63844;50.042;19.224;2023-11-19T06:34:14;30.40;;;13.80;;
75246;SDS011;63844;50.042;19.224;2023-11-19T06:35:51;33.50;;;14.00;;
75246;SDS011;63844;50.042;19.224;2023-11-19T06:37:28;38.30;;;15.50;;
75246;SDS011;63844;50.042;19.224;2023-11-19T06:39:05;45.60;;;20.00;;
75246;SDS011;63844;50.042;19.224;2023-11-19T06:40:42;43.90;;;19.00;;
75246;SDS011;63844;50.042;19.224;2023-11-19T06:42:19;38.80;;;16.60;;
75246;SDS011;63844;50.042;19.224;2023-11-19T06:43:55;31.40;;;13.50;;
75246;SDS011;63844;50.042;19.224;2023-11-19T06:45:32;38.10;;;16.70;;
75246;SDS011;63844;50.042;19.224;2023-11-19T06:47:08;46.30;;;19.40;;
75246;SDS011;63844;50.042;19.224;2023-11-19T06:48:45;43.90;;;19.40;;
75246;SDS011;63844;50.042;19.224;2023-11-19T06:50:23;47.00;;;18.60;;
75246;SDS011;63844;50.042;19.224;2023-11-19T06:52:00;44.50;;;17.90;;
75246;SDS011;63844;50.042;19.224;2023-11-19T06:53:36;41.90;;;17.80;;
75246;SDS011;63844;50.042;19.224;2023-11-19T06:55:13;42.40;;;17.90;;
75246;SDS011;63844;50.042;19.224;2023-11-19T06:56:50;40.60;;;16.50;;
75246;SDS011;63844;50.042;19.224;2023-11-19T06:58:27;34.40;;;15.70;;
75246;SDS011;63844;50.042;19.224;2023-11-19T07:00:05;36.20;;;15.70;;
75246;SDS011;63844;50.042;19.224;2023-11-19T07:01:42;35.40;;;16.30;;
75246;SDS011;63844;50.042;19.224;2023-11-19T07:03:20;40.50;;;16.60;;
75246;SDS011;63844;50.042;19.224;2023-11-19T07:04:58;40.60;;;16.60;;
75246;SDS011;63844;50.042;19.224;2023-11-19T07:06:35;31.90;;;13.90;;
75246;SDS011;63844;50.042;19.224;2023-11-19T07:08:12;38.70;;;15.70;;
75246;SDS011;63844;50.042;19.224;2023-11-19T07:09:48;44.40;;;16.10;;
75246;SDS011;63844;50.042;19.224;2023-11-19T07:11:25;38.00;;;15.50;;
75246;SDS011;63844;50.042;19.224;2023-11-19T07:13:02;28.00;;;13.50;;
75246;SDS011;63844;50.042;19.224;2023-11-19T07:14:38;30.60;;;13.70;;
75246;SDS011;63844;50.042;19.224;2023-11-19T07:16:15;35.00;;;14.90;;
75246;SDS011;63844;50.042;19.224;2023-11-19T07:17:52;29.80;;;12.50;;
75246;SDS011;63844;50.042;19.224;2023-11-19T07:19:30;38.90;;;16.10;;
75246;SDS011;63844;50.042;19.224;2023-11-19T07:21:07;43.70;;;17.30;;
75246;SDS011;63844;50.042;19.224;2023-11-19T07:22:46;42.50;;;16.50;;
75246;SDS011;63844;50.042;19.224;2023-11-19T07:24:23;37.10;;;15.60;;
75246;SDS011;63844;50.042;19.224;2023-11-19T07:26:00;36.20;;;15.60;;
75246;SDS011;63844;50.042;19.224;2023-11-19T07:27:38;35.60;;;15.00;;
75246;SDS011;63844;50.042;19.224;2023-11-19T07:29:15;38.80;;;15.70;;
75246;SDS011;63844;50.042;19.224;2023-11-19T07:30:54;35.70;;;15.90;;
75246;SDS011;63844;50.042;19.224;2023-11-19T07:32:33;34.70;;;14.00;;
75246;SDS011;63844;50.042;19.224;2023-11-19T07:34:10;35.30;;;14.40;;
75246;SDS011;63844;50.042;19.224;2023-11-19T07:35:47;39.40;;;17.50;;
75246;SDS011;63844;50.042;19.224;2023-11-19T07:37:25;32.30;;;14.40;;
75246;SDS011;63844;50.042;19.224;2023-11-19T07:39:03;46.60;;;20.70;;
75246;SDS011;63844;50.042;19.224;2023-11-19T07:40:41;44.90;;;21.30;;
75246;SDS011;63844;50.042;19.224;2023-11-19T07:42:17;38.80;;;16.80;;
75246;SDS011;63844;50.042;19.224;2023-11-19T07:43:54;36.90;;;16.60;;
75246;SDS011;63844;50.042;19.224;2023-11-19T07:45:31;33.50;;;14.10;;
75246;SDS011;63844;50.042;19.224;2023-11-19T07:47:07;32.90;;;14.30;;
75246;SDS011;63844;50.042;19.224;2023-11-19T07:48:44;33.80;;;14.70;;
75246;SDS011;63844;50.042;19.224;2023-11-19T07:50:21;37.20;;;18.20;;
75246;SDS011;63844;50.042;19.224;2023-11-19T07:51:58;38.60;;;19.30;;
75246;SDS011;63844;50.042;19.224;2023-11-19T07:53:35;30.10;;;13.80;;
75246;SDS011;63844;50.042;19.224;2023-11-19T07:55:14;29.80;;;13.60;;
75246;SDS011;63844;50.042;19.224;2023-11-19T07:56:51;35.40;;;14.80;;
75246;SDS011;63844;50.042;19.224;2023-11-19T07:58:28;36.20;;;15.30;;
75246;SDS011;63844;50.042;19.224;2023-11-19T08:00:05;36.00;;;14.90;;
75246;SDS011;63844;50.042;19.224;2023-11-19T08:01:43;41.00;;;17.50;;
75246;SDS011;63844;50.042;19.224;2023-11-19T08:03:19;46.20;;;19.30;;
75246;SDS011;63844;50.042;19.224;2023-11-19T08:04:58;36.30;;;16.50;;
75246;SDS011;63844;50.042;19.224;2023-11-19T08:06:35;35.40;;;15.10;;
75246;SDS011;63844;50.042;19.224;2023-11-19T08:08:11;36.00;;;17.30;;
75246;SDS011;63844;50.042;19.224;2023-11-19T08:09:48;38.40;;;17.60;;
75246;SDS011;63844;50.042;19.224;2023-11-19T08:11:25;33.50;;;14.90;;
75246;SDS011;63844;50.042;19.224;2023-11-19T08:13:01;28.80;;;13.10;;
75246;SDS011;63844;50.042;19.224;2023-11-19T08:14:38;25.90;;;12.30;;
75246;SDS011;63844;50.042;19.224;2023-11-19T08:16:15;35.20;;;16.00;;
75246;SDS011;63844;50.042;19.224;2023-11-19T08:17:52;38.80;;;16.20;;
75246;SDS011;63844;50.042;19.224;2023-11-19T08:19:29;32.30;;;13.80;;
75246;SDS011;63844;50.042;19.224;2023-11-19T08:21:06;34.60;;;15.00;;
75246;SDS011;63844;50.042;19.224;2023-11-19T08:22:43;30.00;;;12.50;;
75246;SDS011;63844;50.042;19.224;2023-11-19T08:24:19;35.20;;;15.70;;
75246;SDS011;63844;50.042;19.224;2023-11-19T08:25:56;38.70;;;16.20;;
75246;SDS011;63844;50.042;19.224;2023-11-19T08:27:33;36.90;;;16.40;;
75246;SDS011;63844;50.042;19.224;2023-11-19T08:29:10;30.80;;;13.80;;
75246;SDS011;63844;50.042;19.224;2023-11-19T08:30:46;33.00;;;14.80;;
75246;SDS011;63844;50.042;19.224;2023-11-19T08:32:24;31.40;;;14.00;;
75246;SDS011;63844;50.042;19.224;2023-11-19T08:34:01;35.20;;;15.10;;
75246;SDS011;63844;50.042;19.224;2023-11-19T08:35:38;34.10;;;15.80;;
75246;SDS011;63844;50.042;19.224;2023-11-19T08:37:14;31.10;;;14.30;;
75246;SDS011;63844;50.042;19.224;2023-11-19T08:38:51;25.90;;;11.90;;
75246;SDS011;63844;50.042;19.224;2023-11-19T08:40:28;30.20;;;13.70;;
75246;SDS011;63844;50.042;19.224;2023-11-19T08:42:08;26.20;;;11.90;;
75246;SDS011;63844;50.042;19.224;2023-11-19T08:43:45;31.70;;;15.40;;
75246;SDS011;63844;50.042;19.224;2023-11-19T08:45:22;26.70;;;12.50;;
75246;SDS011;63844;50.042;19.224;2023-11-19T08:46:59;31.00;;;14.50;;
75246;SDS011;63844;50.042;19.224;2023-11-19T08:48:36;29.70;;;13.90;;
75246;SDS011;63844;50.042;19.224;2023-11-19T08:50:12;30.60;;;14.00;;
75246;SDS011;63844;50.042;19.224;2023-11-19T08:51:49;31.70;;;13.30;;
75246;SDS011;63844;50.042;19.224;2023-11-19T08:53:26;27.60;;;12.40;;
75246;SDS011;63844;50.042;19.224;2023-11-19T08:55:03;26.20;;;12.30;;
75246;SDS011;63844;50.042;19.224;2023-11-19T08:56:41;29.50;;;13.60;;
75246;SDS011;63844;50.042;19.224;2023-11-19T08:58:18;29.30;;;12.00;;
75246;SDS011;63844;50.042;19.224;2023-11-19T08:59:55;28.60;;;12.20;;
75246;SDS011;63844;50.042;19.224;2023-11-19T09:01:32;30.80;;;12.80;;
75246;SDS011;63844;50.042;19.224;2023-11-19T09:03:08;28.70;;;12.00;;
75246;SDS011;63844;50.042;19.224;2023-11-19T09:04:45;27.40;;;12.80;;
75246;SDS011;63844;50.042;19.224;2023-11-19T09:06:22;34.00;;;13.60;;
75246;SDS011;63844;50.042;19.224;2023-11-19T09:07:59;32.90;;;16.00;;
75246;SDS011;63844;50.042;19.224;2023-11-19T09:09:36;31.50;;;14.50;;
75246;SDS011;63844;50.042;19.224;2023-11-19T09:11:13;34.30;;;15.50;;
75246;SDS011;63844;50.042;19.224;2023-11-19T09:12:49;31.90;;;13.40;;
75246;SDS011;63844;50.042;19.224;2023-11-19T09:14:26;28.00;;;12.60;;
75246;SDS011;63844;50.042;19.224;2023-11-19T09:16:03;32.20;;;14.00;;
75246;SDS011;63844;50.042;19.224;2023-11-19T09:17:40;27.20;;;13.10;;
75246;SDS011;63844;50.042;19.224;2023-11-19T09:19:17;33.80;;;15.50;;
75246;SDS011;63844;50.042;19.224;2023-11-19T09:20:54;41.40;;;16.10;;
75246;SDS011;63844;50.042;19.224;2023-11-19T09:22:30;24.70;;;11.60;;
75246;SDS011;63844;50.042;19.224;2023-11-19T09:24:07;29.10;;;13.10;;